Johnny James — WYT8450 — position and weather

sailwx.info

Track history (hours):
 
Tides and Currents Weather Stations Pressure Air Temp Water Temp Dewpoint Dewpoint Depression Visibility Wind Speed Wind Dir Waves Ship Positions

Johnny James

Owner: CALLAIS & SONS INC, CUT OFF, LA. More information available from US FCC via Universal Licensing System and Coast Guard Vessel Documentation Center.

Last reported at 2016-Dec-06 21:30 UTC. Time now 2016-Dec-10 01:12 UTC.
Position N 29°26' W 094°50'.

Length 20 m.

Type: SAR. MMSI: 367005220.

Date/timePositionNaut miles runAvg speedWind from/ knotsBaromVisibWave heightAir tempDewpointWater temp
2016-Dec-06 21:30N 29°26' W 094°50'7 6.2
2016-Dec-06 20:22N 29°32' W 094°54'10 5.6
2016-Dec-06 18:33N 29°41' W 094°59'5 5.4
2016-Dec-06 17:33N 29°45' W 095°04'1 1.3
2016-Dec-06 16:33N 29°46' W 095°04'0 0.0
2016-Dec-06 15:33N 29°46' W 095°04'0 0.0
2016-Dec-06 14:33N 29°46' W 095°04'0 0.0
2016-Dec-06 13:33N 29°46' W 095°04'0 0.0
2016-Dec-05 23:32N 29°46' W 095°04'0 0.0
2016-Dec-05 22:33N 29°46' W 095°04'0 0.0
2016-Dec-05 21:33N 29°46' W 095°04'1 0.5
2016-Dec-05 19:20N 29°46' W 095°06'1 1.5
2016-Dec-05 18:33N 29°46' W 095°04'0 0.0
2016-Dec-05 17:33N 29°46' W 095°04'0 0.0
2016-Dec-05 16:33N 29°46' W 095°04'0 0.0
2016-Dec-05 15:33N 29°46' W 095°04'0 0.0
2016-Dec-05 14:30N 29°46' W 095°04'0 0.0
2016-Dec-05 13:32N 29°46' W 095°04'0 0.0
2016-Dec-04 23:12N 29°46' W 095°04'0 0.0
2016-Dec-04 22:32N 29°46' W 095°04'0 0.0
2016-Dec-04 21:33N 29°46' W 095°04'0 0.0
2016-Dec-04 20:33N 29°46' W 095°04'0 0.0
2016-Dec-04 19:33N 29°46' W 095°04'0 0.0
2016-Dec-04 18:33N 29°46' W 095°04'0 0.0
2016-Dec-04 17:33N 29°46' W 095°04'0 0.0
2016-Dec-04 16:33N 29°46' W 095°04'0 0.0
2016-Dec-04 15:33N 29°46' W 095°04'0 0.0
2016-Dec-04 14:33N 29°46' W 095°04'0 0.0
2016-Dec-02 18:23N 29°46' W 095°04'0 0.0
2016-Dec-02 17:33N 29°46' W 095°04'0 0.0
2016-Dec-02 16:33N 29°46' W 095°04'0 0.0
2016-Dec-02 15:33N 29°46' W 095°04'0 0.0
2016-Dec-02 14:32N 29°46' W 095°04'0 0.0
2016-Dec-02 13:32N 29°46' W 095°04'  
2016-Nov-29 23:19N 29°45' W 095°04'3 3.2
2016-Nov-29 22:25N 29°43' W 095°01'5 5.5
2016-Nov-29 21:33N 29°39' W 094°58'5 5.4
2016-Nov-29 20:32N 29°34' W 094°55'  
Track history (hours):
 
Tides and Currents Weather Stations Pressure Air Temp Water Temp Dewpoint Dewpoint Depression Visibility Wind Speed Wind Dir Waves Ship Positions

Johnny James

Owner: CALLAIS & SONS INC, CUT OFF, LA. More information available from US FCC via Universal Licensing System and Coast Guard Vessel Documentation Center.

Last reported at 2016-Dec-06 21:30 UTC. Time now 2016-Dec-10 01:12 UTC.
Position N 29°26' W 094°50'.

Length 20 m.

Type: SAR. MMSI: 367005220.

Date/timePositionNaut miles runAvg speedWind from/ knotsBaromVisibWave heightAir tempDewpointWater temp
2016-Dec-06 21:30N 29°26' W 094°50'7 6.2
2016-Dec-06 20:22N 29°32' W 094°54'10 5.6
2016-Dec-06 18:33N 29°41' W 094°59'5 5.4
2016-Dec-06 17:33N 29°45' W 095°04'1 1.3
2016-Dec-06 16:33N 29°46' W 095°04'0 0.0
2016-Dec-06 15:33N 29°46' W 095°04'0 0.0
2016-Dec-06 14:33N 29°46' W 095°04'0 0.0
2016-Dec-06 13:33N 29°46' W 095°04'0 0.0
2016-Dec-05 23:32N 29°46' W 095°04'0 0.0
2016-Dec-05 22:33N 29°46' W 095°04'0 0.0
2016-Dec-05 21:33N 29°46' W 095°04'1 0.5
2016-Dec-05 19:20N 29°46' W 095°06'1 1.5
2016-Dec-05 18:33N 29°46' W 095°04'0 0.0
2016-Dec-05 17:33N 29°46' W 095°04'0 0.0
2016-Dec-05 16:33N 29°46' W 095°04'0 0.0
2016-Dec-05 15:33N 29°46' W 095°04'0 0.0
2016-Dec-05 14:30N 29°46' W 095°04'0 0.0
2016-Dec-05 13:32N 29°46' W 095°04'0 0.0
2016-Dec-04 23:12N 29°46' W 095°04'0 0.0
2016-Dec-04 22:32N 29°46' W 095°04'0 0.0
2016-Dec-04 21:33N 29°46' W 095°04'0 0.0
2016-Dec-04 20:33N 29°46' W 095°04'0 0.0
2016-Dec-04 19:33N 29°46' W 095°04'0 0.0
2016-Dec-04 18:33N 29°46' W 095°04'0 0.0
2016-Dec-04 17:33N 29°46' W 095°04'0 0.0
2016-Dec-04 16:33N 29°46' W 095°04'0 0.0
2016-Dec-04 15:33N 29°46' W 095°04'0 0.0
2016-Dec-04 14:33N 29°46' W 095°04'0 0.0
2016-Dec-02 18:23N 29°46' W 095°04'0 0.0
2016-Dec-02 17:33N 29°46' W 095°04'0 0.0
2016-Dec-02 16:33N 29°46' W 095°04'0 0.0
2016-Dec-02 15:33N 29°46' W 095°04'0 0.0
2016-Dec-02 14:32N 29°46' W 095°04'0 0.0
2016-Dec-02 13:32N 29°46' W 095°04'  
2016-Nov-29 23:19N 29°45' W 095°04'3 3.2
2016-Nov-29 22:25N 29°43' W 095°01'5 5.5
2016-Nov-29 21:33N 29°39' W 094°58'5 5.4
2016-Nov-29 20:32N 29°34' W 094°55'  

Dump ship's entire track history